createdAt,value
2022-10-18T00:02:13.528Z,3.90
2022-10-18T00:04:39.971Z,3.40
2022-10-18T00:07:06.489Z,3.30
2022-10-18T00:09:33.372Z,3.45
2022-10-18T00:12:00.771Z,4.32
2022-10-18T00:14:27.199Z,3.42
2022-10-18T00:16:53.817Z,3.28
2022-10-18T00:19:20.219Z,3.10
2022-10-18T00:21:46.623Z,3.55
2022-10-18T00:24:13.032Z,3.30
2022-10-18T00:26:39.439Z,3.40
2022-10-18T00:29:05.990Z,2.90
2022-10-18T00:31:37.631Z,2.63
2022-10-18T00:34:14.265Z,2.58
2022-10-18T00:36:41.273Z,2.30
2022-10-18T00:39:09.374Z,1.70
2022-10-18T00:41:38.006Z,1.40
2022-10-18T00:44:10.639Z,1.95
2022-10-18T00:46:39.738Z,2.83
2022-10-18T00:49:37.502Z,2.70
2022-10-18T00:52:15.450Z,2.50
2022-10-18T00:54:44.194Z,2.72
2022-10-18T00:57:11.833Z,2.70
2022-10-18T00:59:38.666Z,2.90
2022-10-18T01:02:06.624Z,2.60
2022-10-18T01:04:33.483Z,2.88
2022-10-18T01:07:47.478Z,2.03
2022-10-18T01:10:25.442Z,2.80
2022-10-18T01:13:12.982Z,2.50
2022-10-18T01:15:52.759Z,2.78
2022-10-18T01:18:36.962Z,2.92
2022-10-18T01:21:16.862Z,2.78
2022-10-18T01:24:13.760Z,2.40
2022-10-18T01:26:43.070Z,2.50
2022-10-18T01:29:25.220Z,2.78
2022-10-18T01:32:04.819Z,2.63
2022-10-18T01:34:36.155Z,2.25
2022-10-18T01:37:07.832Z,3.30
2022-10-18T01:39:38.534Z,3.33
2022-10-18T01:42:10.376Z,3.05
2022-10-18T01:44:38.998Z,3.53
2022-10-18T01:47:09.384Z,3.15
2022-10-18T01:49:35.823Z,3.15
2022-10-18T01:52:02.344Z,3.10
2022-10-18T01:54:36.359Z,3.38
2022-10-18T01:57:16.886Z,3.40
2022-10-18T01:59:56.374Z,3.53
2022-10-18T02:02:25.690Z,3.15
2022-10-18T02:05:07.334Z,2.38
2022-10-18T02:07:55.261Z,2.88
2022-10-18T02:10:48.687Z,2.65
2022-10-18T02:13:19.080Z,2.95
2022-10-18T02:15:48.626Z,2.80
2022-10-18T02:18:20.881Z,2.10
2022-10-18T02:20:48.751Z,2.22
2022-10-18T02:23:18.886Z,2.85
2022-10-18T02:25:45.383Z,2.40
2022-10-18T02:28:11.861Z,2.80
2022-10-18T02:30:48.507Z,2.90
2022-10-18T02:33:21.938Z,2.50
2022-10-18T02:35:56.870Z,2.60
2022-10-18T02:38:25.302Z,2.63
2022-10-18T02:43:18.285Z,2.80
2022-10-18T02:45:44.769Z,3.20
2022-10-18T02:48:11.176Z,2.25
2022-10-18T02:50:37.558Z,2.63
2022-10-18T02:53:04.367Z,2.90
2022-10-18T02:55:30.756Z,2.22
2022-10-18T02:57:57.201Z,2.80
2022-10-18T03:00:23.632Z,2.65
2022-10-18T03:02:50.158Z,2.45
2022-10-18T03:05:16.687Z,2.50
2022-10-18T03:07:43.118Z,2.80
2022-10-18T03:10:09.745Z,2.40
2022-10-18T03:12:36.159Z,2.15
2022-10-18T03:15:02.921Z,2.58
2022-10-18T03:17:29.618Z,2.90
2022-10-18T03:19:56.245Z,2.22
2022-10-18T03:22:22.855Z,2.35
2022-10-18T03:24:49.368Z,2.17
2022-10-18T03:27:15.805Z,1.95
2022-10-18T03:29:42.639Z,2.80
2022-10-18T03:32:09.107Z,2.58
2022-10-18T03:34:35.505Z,2.30
2022-10-18T03:37:04.749Z,2.38
2022-10-18T03:39:32.021Z,2.10
2022-10-18T03:41:58.428Z,2.47
2022-10-18T03:44:39.308Z,2.60
2022-10-18T03:47:05.707Z,2.72
2022-10-18T03:51:58.659Z,2.38
2022-10-18T03:54:25.189Z,2.90
2022-10-18T03:56:51.628Z,2.83
2022-10-18T03:59:18.159Z,2.83
2022-10-18T04:01:44.677Z,2.60
2022-10-18T04:04:11.214Z,2.92
2022-10-18T04:06:37.843Z,2.97
2022-10-18T04:09:07.839Z,2.80
2022-10-18T04:11:36.814Z,2.58
2022-10-18T04:14:03.349Z,2.67
2022-10-18T04:16:29.855Z,2.65
2022-10-18T04:18:56.413Z,2.83
2022-10-18T04:21:22.833Z,2.42
2022-10-18T04:23:50.389Z,2.30
2022-10-18T04:26:17.374Z,2.38
2022-10-18T04:28:44.006Z,2.80
2022-10-18T04:31:11.883Z,2.95
2022-10-18T04:33:38.452Z,2.53
2022-10-18T04:36:05.110Z,2.72
2022-10-18T04:38:31.580Z,2.70
2022-10-18T04:40:58.002Z,2.50
2022-10-18T04:43:24.523Z,2.50
2022-10-18T04:45:51.186Z,2.58
2022-10-18T04:48:18.304Z,2.67
2022-10-18T04:50:48.420Z,2.75
2022-10-18T04:53:15.882Z,2.95
2022-10-18T04:55:49.756Z,2.55
2022-10-18T04:58:17.647Z,3.40
2022-10-18T05:00:44.084Z,2.95
2022-10-18T05:03:13.095Z,3.50
2022-10-18T05:06:00.326Z,3.83
2022-10-18T05:08:26.244Z,3.50
2022-10-18T05:10:52.777Z,3.78
2022-10-18T05:13:19.275Z,3.60
2022-10-18T05:15:48.987Z,3.75
2022-10-18T05:18:15.702Z,3.50
2022-10-18T05:20:42.295Z,3.38
2022-10-18T05:23:11.345Z,3.80
2022-10-18T05:25:39.536Z,5.53
2022-10-18T05:28:15.618Z,6.32
2022-10-18T05:30:52.745Z,6.40
2022-10-18T05:33:19.159Z,6.50
2022-10-18T05:35:45.567Z,6.10
2022-10-18T05:38:12.462Z,5.72
2022-10-18T05:40:39.437Z,6.53
2022-10-18T05:43:05.872Z,6.28
2022-10-18T05:45:32.279Z,6.30
2022-10-18T05:47:58.732Z,4.20
2022-10-18T05:50:25.183Z,4.18
2022-10-18T05:52:51.640Z,3.38
2022-10-18T05:55:18.078Z,3.88
2022-10-18T05:57:49.793Z,3.70
2022-10-18T06:00:16.819Z,4.20
2022-10-18T06:02:43.393Z,4.10
2022-10-18T06:05:09.862Z,4.20
2022-10-18T06:07:36.278Z,4.43
2022-10-18T06:10:02.765Z,4.20
2022-10-18T06:12:29.233Z,3.83
2022-10-18T06:14:55.662Z,4.53
2022-10-18T06:17:22.078Z,4.22
2022-10-18T06:19:48.980Z,3.83
2022-10-18T06:22:15.526Z,4.35
2022-10-18T06:24:41.992Z,4.80
2022-10-18T06:27:10.461Z,5.22
2022-10-18T06:29:37.878Z,4.57
2022-10-18T06:32:06.018Z,4.07
2022-10-18T06:34:33.180Z,4.50
2022-10-18T06:36:59.911Z,4.30
2022-10-18T06:39:26.396Z,4.13
2022-10-18T06:41:53.053Z,3.88
2022-10-18T06:44:22.744Z,4.35
2022-10-18T06:46:49.690Z,4.45
2022-10-18T06:49:19.195Z,4.68
2022-10-18T06:51:46.236Z,4.50
2022-10-18T06:54:18.094Z,4.85
2022-10-18T06:56:45.081Z,5.72
2022-10-18T06:59:11.595Z,6.22
2022-10-18T07:01:38.098Z,5.60
2022-10-18T07:04:04.786Z,6.20
2022-10-18T07:06:31.310Z,5.78
2022-10-18T07:08:57.804Z,5.95
2022-10-18T07:11:26.782Z,5.30
2022-10-18T07:13:54.800Z,5.93
2022-10-18T07:16:21.765Z,5.50
2022-10-18T07:18:50.887Z,5.03
2022-10-18T07:21:20.249Z,4.82
2022-10-18T07:23:47.379Z,5.45
2022-10-18T07:26:18.186Z,5.15
2022-10-18T07:28:46.614Z,5.03
2022-10-18T07:31:13.332Z,5.25
2022-10-18T07:33:40.044Z,6.05
2022-10-18T07:36:08.897Z,5.45
2022-10-18T07:38:35.729Z,5.28
2022-10-18T07:41:04.423Z,4.60
2022-10-18T07:43:30.918Z,4.68
2022-10-18T07:45:59.622Z,4.90
2022-10-18T07:48:26.495Z,5.35
2022-10-18T07:50:53.555Z,5.40
2022-10-18T07:53:19.958Z,4.53
2022-10-18T07:55:46.396Z,4.90
2022-10-18T07:58:12.885Z,4.78
2022-10-18T08:00:40.172Z,5.13
2022-10-18T08:03:06.772Z,4.05
2022-10-18T08:08:07.943Z,6.93
2022-10-18T08:10:35.776Z,4.13
2022-10-18T08:13:02.157Z,4.20
2022-10-18T08:15:28.563Z,4.38
2022-10-18T08:17:54.959Z,4.25
2022-10-18T08:20:30.515Z,3.78
2022-10-18T08:23:00.137Z,3.58
2022-10-18T08:25:27.620Z,4.03
2022-10-18T08:27:54.160Z,3.90
2022-10-18T08:30:20.597Z,4.65
2022-10-18T08:32:47.014Z,4.28
2022-10-18T08:35:13.473Z,3.60
2022-10-18T08:37:40.338Z,3.60
2022-10-18T08:40:07.386Z,5.50
2022-10-18T08:42:52.616Z,3.88
2022-10-18T08:45:37.386Z,3.45
2022-10-18T08:48:07.265Z,3.42
2022-10-18T08:50:36.881Z,3.20
2022-10-18T08:53:13.902Z,3.70
2022-10-18T08:55:52.534Z,2.97
2022-10-18T08:58:30.770Z,3.15
2022-10-18T09:01:33.765Z,3.03
2022-10-18T09:04:06.197Z,3.50
2022-10-18T09:06:40.734Z,3.45
2022-10-18T09:09:16.125Z,2.70
2022-10-18T09:12:11.915Z,3.28
2022-10-18T09:14:45.895Z,2.65
2022-10-18T09:17:24.894Z,2.67
2022-10-18T09:20:16.305Z,2.83
2022-10-18T09:22:51.563Z,3.28
2022-10-18T09:25:19.818Z,3.00
2022-10-18T09:27:53.647Z,3.15
2022-10-18T09:30:26.592Z,3.30
2022-10-18T09:33:21.924Z,3.55
2022-10-18T09:35:57.296Z,3.38
2022-10-18T09:38:30.788Z,3.70
2022-10-18T09:41:18.187Z,4.38
2022-10-18T09:43:54.435Z,2.63
2022-10-18T09:46:26.081Z,2.70
2022-10-18T09:49:03.642Z,3.03
2022-10-18T09:51:36.174Z,3.17
2022-10-18T09:54:20.525Z,2.88
2022-10-18T09:59:36.024Z,3.03
2022-10-18T10:02:03.154Z,3.30
2022-10-18T10:04:30.972Z,3.17
2022-10-18T10:07:00.728Z,3.00
2022-10-18T10:09:58.114Z,2.95
2022-10-18T10:12:36.715Z,3.35
2022-10-18T10:15:13.868Z,3.08
2022-10-18T10:17:40.344Z,3.35
2022-10-18T10:20:25.320Z,3.28
2022-10-18T10:22:52.998Z,3.28
2022-10-18T10:25:41.038Z,3.60
2022-10-18T10:28:15.178Z,3.22
2022-10-18T10:30:41.846Z,3.17
2022-10-18T10:33:35.501Z,3.40
2022-10-18T10:36:05.642Z,3.40
2022-10-18T10:38:32.285Z,3.17
2022-10-18T10:40:59.267Z,3.00
2022-10-18T10:43:43.035Z,3.05
2022-10-18T10:46:16.143Z,3.22
2022-10-18T10:49:15.314Z,3.30
2022-10-18T10:51:44.432Z,3.30
2022-10-18T10:54:20.444Z,2.72
2022-10-18T10:57:16.525Z,2.58
2022-10-18T10:59:48.986Z,2.90
2022-10-18T11:02:15.402Z,3.15
2022-10-18T11:04:42.516Z,3.90
2022-10-18T11:07:08.881Z,2.85
2022-10-18T11:09:50.738Z,2.95
2022-10-18T11:12:22.511Z,4.03
2022-10-18T11:15:12.069Z,3.20
2022-10-18T11:20:37.119Z,2.83
2022-10-18T11:23:10.888Z,3.67
2022-10-18T11:25:58.641Z,3.58
2022-10-18T11:28:47.921Z,4.10
2022-10-18T11:31:20.387Z,4.20
2022-10-18T11:34:10.578Z,3.47
2022-10-18T11:36:56.390Z,3.22
2022-10-18T11:40:02.923Z,3.97
2022-10-18T11:42:47.981Z,3.30
2022-10-18T11:48:20.020Z,3.70
2022-10-18T11:51:14.777Z,3.88
2022-10-18T11:54:03.088Z,4.10
2022-10-18T11:57:01.937Z,3.70
2022-10-18T11:59:38.338Z,3.97
2022-10-18T12:02:21.504Z,3.92
2022-10-18T12:04:59.824Z,3.65
2022-10-18T12:07:56.649Z,3.78
2022-10-18T12:10:37.792Z,4.10
2022-10-18T12:13:17.335Z,4.03
2022-10-18T12:15:45.029Z,4.38
2022-10-18T12:18:19.045Z,4.03
2022-10-18T12:20:55.022Z,4.25
2022-10-18T12:23:39.158Z,4.50
2022-10-18T12:26:09.659Z,4.22
2022-10-18T12:29:07.994Z,4.57
2022-10-18T12:31:48.351Z,4.57
2022-10-18T12:34:36.357Z,4.07
2022-10-18T12:37:40.869Z,4.18
2022-10-18T12:40:20.486Z,4.40
2022-10-18T12:42:50.845Z,4.70
2022-10-18T12:45:25.772Z,4.43
2022-10-18T12:47:53.197Z,4.68
2022-10-18T12:50:32.670Z,4.43
2022-10-18T12:53:26.597Z,4.45
2022-10-18T12:55:54.704Z,4.97
2022-10-18T13:00:49.688Z,5.18
2022-10-18T13:03:19.349Z,5.45
2022-10-18T13:05:54.423Z,5.45
2022-10-18T13:08:28.044Z,5.03
2022-10-18T13:11:10.048Z,5.50
2022-10-18T13:14:01.495Z,5.35
2022-10-18T13:16:39.959Z,4.75
2022-10-18T13:20:24.445Z,6.82
2022-10-18T13:25:55.102Z,5.10
2022-10-18T13:28:30.958Z,7.10
2022-10-18T13:31:23.439Z,5.60
2022-10-18T13:33:50.157Z,5.65
2022-10-18T13:36:24.869Z,7.07
2022-10-18T13:38:55.668Z,6.18
2022-10-18T13:41:43.798Z,5.57
2022-10-18T13:44:11.951Z,6.10
2022-10-18T13:46:38.542Z,5.22
2022-10-18T13:49:14.729Z,5.95
2022-10-18T13:51:53.038Z,5.47
2022-10-18T13:54:37.681Z,6.00
2022-10-18T13:57:22.419Z,5.63
2022-10-18T14:00:24.980Z,5.10
2022-10-18T14:03:54.932Z,4.28
2022-10-18T14:06:26.860Z,5.35
2022-10-18T14:09:06.184Z,4.22
2022-10-18T14:11:46.288Z,3.60
2022-10-18T14:14:15.553Z,3.60
2022-10-18T14:16:56.980Z,3.40
2022-10-18T14:19:32.646Z,3.13
2022-10-18T14:22:11.514Z,4.40
2022-10-18T14:24:43.590Z,2.95
2022-10-18T14:27:20.448Z,3.05
2022-10-18T14:29:48.293Z,2.80
2022-10-18T14:32:29.269Z,2.83
2022-10-18T14:35:20.655Z,3.35
2022-10-18T14:37:43.478Z,2.72
2022-10-18T14:40:28.911Z,3.17
2022-10-18T14:42:55.428Z,2.65
2022-10-18T14:45:23.235Z,2.53
2022-10-18T14:47:49.802Z,2.15
2022-10-18T14:50:30.358Z,2.83
2022-10-18T14:52:57.399Z,3.78
2022-10-18T14:55:26.033Z,2.00
2022-10-18T14:57:52.732Z,2.00
2022-10-18T15:00:33.799Z,2.55
2022-10-18T15:03:02.526Z,2.28
2022-10-18T15:05:28.961Z,2.25
2022-10-18T15:07:58.025Z,2.60
2022-10-18T15:10:28.836Z,2.80
2022-10-18T15:13:16.557Z,2.85
2022-10-18T15:15:44.120Z,2.65
2022-10-18T15:18:25.222Z,8.00
2022-10-18T15:21:23.761Z,2.65
2022-10-18T15:23:51.579Z,2.10
2022-10-18T15:26:29.514Z,2.85
2022-10-18T15:29:00.554Z,2.83
2022-10-18T15:31:33.025Z,3.17
2022-10-18T15:34:15.274Z,2.20
2022-10-18T15:36:44.986Z,2.83
2022-10-18T15:39:18.967Z,2.72
2022-10-18T15:41:52.729Z,2.78
2022-10-18T15:44:28.307Z,2.40
2022-10-18T15:47:09.017Z,2.28
2022-10-18T15:49:44.690Z,2.38
2022-10-18T15:52:26.000Z,2.45
2022-10-18T15:54:52.431Z,2.53
2022-10-18T15:57:18.950Z,2.47
2022-10-18T15:59:54.870Z,2.65
2022-10-18T16:02:21.435Z,2.85
2022-10-18T16:04:47.940Z,3.35
2022-10-18T16:07:14.405Z,2.42
2022-10-18T16:09:41.020Z,2.80
2022-10-18T16:12:07.495Z,2.92
2022-10-18T16:14:34.033Z,2.97
2022-10-18T16:17:03.923Z,3.65
2022-10-18T16:19:32.047Z,5.10
2022-10-18T16:24:33.051Z,4.80
2022-10-18T16:26:59.490Z,5.22
2022-10-18T16:29:28.498Z,3.50
2022-10-18T16:31:58.142Z,3.95
2022-10-18T16:34:29.451Z,4.35
2022-10-18T16:36:55.998Z,5.35
2022-10-18T16:39:22.987Z,5.20
2022-10-18T16:41:51.229Z,4.70
2022-10-18T16:44:19.134Z,9.38
2022-10-18T16:46:46.495Z,11.90
2022-10-18T16:49:22.702Z,13.38
2022-10-18T16:51:50.275Z,18.13
2022-10-18T16:54:16.803Z,10.13
2022-10-18T16:56:43.239Z,6.20
2022-10-18T16:59:27.774Z,6.85
2022-10-18T17:01:54.392Z,7.28
2022-10-18T17:04:20.941Z,5.57
2022-10-18T17:06:49.085Z,4.65
2022-10-18T17:09:15.930Z,4.13
2022-10-18T17:11:42.575Z,3.92
2022-10-18T17:14:08.987Z,4.22
2022-10-18T17:16:37.078Z,4.22
2022-10-18T17:19:06.701Z,5.90
2022-10-18T17:21:33.829Z,7.82
2022-10-18T17:24:04.311Z,7.45
2022-10-18T17:26:31.229Z,13.70
2022-10-18T17:29:03.789Z,13.38
2022-10-18T17:31:31.494Z,5.97
2022-10-18T17:33:58.820Z,5.53
2022-10-18T17:36:25.873Z,7.43
2022-10-18T17:38:53.660Z,23.10
2022-10-18T17:41:20.948Z,16.42
2022-10-18T17:43:48.331Z,30.05
2022-10-18T17:46:15.408Z,18.70
2022-10-18T17:48:42.576Z,8.80
2022-10-18T17:51:11.086Z,6.43
2022-10-18T17:53:37.839Z,6.32
2022-10-18T17:56:05.086Z,6.03
2022-10-18T17:58:31.638Z,6.03
2022-10-18T18:00:58.495Z,5.85
2022-10-18T18:03:24.975Z,4.97
2022-10-18T18:05:51.461Z,4.78
2022-10-18T18:08:17.914Z,4.60
2022-10-18T18:10:44.443Z,4.03
2022-10-18T18:13:11.176Z,3.88
2022-10-18T18:15:37.997Z,4.20
2022-10-18T18:18:04.441Z,4.88
2022-10-18T18:20:30.962Z,5.47
2022-10-18T18:22:57.505Z,4.60
2022-10-18T18:25:23.932Z,4.22
2022-10-18T18:27:50.378Z,3.95
2022-10-18T18:30:18.003Z,4.05
2022-10-18T18:32:44.657Z,4.20
2022-10-18T18:35:11.527Z,4.40
2022-10-18T18:37:37.953Z,3.20
2022-10-18T18:40:04.748Z,3.83
2022-10-18T18:42:32.560Z,4.78
2022-10-18T18:44:59.097Z,4.93
2022-10-18T18:47:27.131Z,5.57
2022-10-18T18:49:53.562Z,5.05
2022-10-18T18:52:19.996Z,5.80
2022-10-18T18:54:46.421Z,5.15
2022-10-18T18:57:12.870Z,6.32
2022-10-18T18:59:39.354Z,4.47
2022-10-18T19:02:05.789Z,6.05
2022-10-18T19:04:32.838Z,6.00
2022-10-18T19:06:59.244Z,5.75
2022-10-18T19:09:27.329Z,6.25
2022-10-18T19:11:56.235Z,5.30
2022-10-18T19:14:25.018Z,6.35
2022-10-18T19:16:54.584Z,6.30
2022-10-18T19:19:23.047Z,6.47
2022-10-18T19:21:52.336Z,6.63
2022-10-18T19:24:20.506Z,6.35
2022-10-18T19:26:54.407Z,5.88
2022-10-18T19:29:24.842Z,5.13
2022-10-18T19:31:53.915Z,5.07
2022-10-18T19:34:21.837Z,5.47
2022-10-18T19:36:49.218Z,5.60
2022-10-18T19:39:18.635Z,5.22
2022-10-18T19:41:50.643Z,4.93
2022-10-18T19:44:20.729Z,5.43
2022-10-18T19:46:48.172Z,5.70
2022-10-18T19:49:14.976Z,5.05
2022-10-18T19:51:41.954Z,5.55
2022-10-18T19:54:11.422Z,5.35
2022-10-18T19:56:38.070Z,5.93
2022-10-18T19:59:04.574Z,5.25
2022-10-18T20:01:31.104Z,5.50
2022-10-18T20:03:57.652Z,5.68
2022-10-18T20:06:24.237Z,5.97
2022-10-18T20:08:51.460Z,5.72
2022-10-18T20:11:22.022Z,5.28
2022-10-18T20:13:48.499Z,4.88
2022-10-18T20:16:16.555Z,5.95
2022-10-18T20:18:43.365Z,6.13
2022-10-18T20:21:11.886Z,6.15
2022-10-18T20:23:40.670Z,6.00
2022-10-18T20:26:20.531Z,5.30
2022-10-18T20:28:55.546Z,6.63
2022-10-18T20:31:27.616Z,6.30
2022-10-18T20:33:59.400Z,7.43
2022-10-18T20:36:27.396Z,7.80
2022-10-18T20:38:54.814Z,8.32
2022-10-18T20:41:24.336Z,15.43
2022-10-18T20:44:00.997Z,18.23
2022-10-18T20:46:30.552Z,18.42
2022-10-18T20:48:57.153Z,13.73
2022-10-18T20:51:24.032Z,11.07
2022-10-18T20:53:51.153Z,7.55
2022-10-18T20:56:20.471Z,8.43
2022-10-18T20:58:49.207Z,8.15
2022-10-18T21:01:21.202Z,8.65
2022-10-18T21:03:49.646Z,9.10
2022-10-18T21:06:17.098Z,9.20
2022-10-18T21:08:44.428Z,9.13
2022-10-18T21:11:11.905Z,8.85
2022-10-18T21:13:40.716Z,8.18
2022-10-18T21:16:07.735Z,7.20
2022-10-18T21:18:36.771Z,8.20
2022-10-18T21:21:08.384Z,7.18
2022-10-18T21:23:35.444Z,8.00
2022-10-18T21:26:01.917Z,7.22
2022-10-18T21:28:28.351Z,8.15
2022-10-18T21:30:54.800Z,7.88
2022-10-18T21:33:21.258Z,7.85
2022-10-18T21:35:47.680Z,8.70
2022-10-18T21:38:14.082Z,8.70
2022-10-18T21:40:44.510Z,8.23
2022-10-18T21:43:11.839Z,8.35
2022-10-18T21:45:38.265Z,8.52
2022-10-18T21:48:04.895Z,8.10
2022-10-18T21:50:34.029Z,7.85
2022-10-18T21:53:00.489Z,7.85
2022-10-18T21:55:26.995Z,9.07
2022-10-18T21:57:53.521Z,7.90
2022-10-18T22:00:20.057Z,7.93
2022-10-18T22:02:46.557Z,7.45
2022-10-18T22:05:13.008Z,7.15
2022-10-18T22:07:39.507Z,7.40
2022-10-18T22:10:06.342Z,7.88
2022-10-18T22:12:32.770Z,7.85
2022-10-18T22:14:59.294Z,6.72
2022-10-18T22:17:26.040Z,6.88
2022-10-18T22:19:52.425Z,7.75
2022-10-18T22:22:18.858Z,7.07
2022-10-18T22:24:45.254Z,7.18
2022-10-18T22:27:11.726Z,7.75
2022-10-18T22:29:38.179Z,7.30
2022-10-18T22:32:04.783Z,6.88
2022-10-18T22:34:31.247Z,7.35
2022-10-18T22:36:57.645Z,6.82
2022-10-18T22:39:24.608Z,7.32
2022-10-18T22:41:55.691Z,6.82
2022-10-18T22:44:22.314Z,6.72
2022-10-18T22:46:49.327Z,6.55
2022-10-18T22:49:15.936Z,5.72
2022-10-18T22:51:42.373Z,5.95
2022-10-18T22:54:08.990Z,5.40
2022-10-18T22:56:35.437Z,5.78
2022-10-18T22:59:01.879Z,5.22
2022-10-18T23:01:28.406Z,5.10
2022-10-18T23:03:56.841Z,5.82
2022-10-18T23:06:34.808Z,5.05
2022-10-18T23:09:05.403Z,4.70
2022-10-18T23:11:32.718Z,5.30
2022-10-18T23:13:59.221Z,5.55
2022-10-18T23:16:25.618Z,5.25
2022-10-18T23:18:54.680Z,5.20
2022-10-18T23:21:24.122Z,4.30
2022-10-18T23:23:51.720Z,5.00
2022-10-18T23:26:21.049Z,5.32
2022-10-18T23:28:49.125Z,4.75
2022-10-18T23:31:34.818Z,4.63
2022-10-18T23:34:04.757Z,4.43
2022-10-18T23:36:32.473Z,4.72
2022-10-18T23:38:59.275Z,4.50
2022-10-18T23:41:26.095Z,4.57
2022-10-18T23:43:52.890Z,3.95
2022-10-18T23:46:20.489Z,4.00
2022-10-18T23:48:47.508Z,3.15
2022-10-18T23:51:14.914Z,3.22
2022-10-18T23:53:41.432Z,3.33
2022-10-18T23:56:11.182Z,3.67
2022-10-18T23:58:38.688Z,3.38
